^^

..:: Storico WU ::..




Lo storico viene creato da WUnderground con i dati che la stazione Meteomincio invia al loro server. L' aggiornamento viene fatto ogni 5 minuti circa, tuttavia possono esserci intervalli pił ampi a causa di errori, interruzioni di servizio o problemi nell' invio tramite FTP.


Storico stazione MeteoMincio
Giorno Sommario per Aprile 25, 2022 Unità:  Inglese    Metrico   Entrambi
Giorno Settimana Mese Anno
  Max: Min: Media:
Temperatura: 68 °F 46.4 °F 57.6 °F
Dew Point: 55.4 °F 42.8 °F 50.5 °F
Umidità: 92% 64% 79%
Velocità vento: 9.3mph 0.6mph 4.4mph
Raffica: 13mph - -
Direzione- - South
Pressione: 29.9 in 29.7 in -
Precipitazioni: 0 in    
 
 
Tabulato Dati per Aprile 25, 2022
Ora Temperatura Dew Point Pressione Direzione Velocità vento Raffica Umidità Intensità pioggia (oraria) Info solare Situazione
00:04 50 °F 46.4 °F 29.7 in SW 1.9 mph 3.7 mph 89% 0 in 0.00 W/m2 unknown
00:09 50 °F 46.4 °F 29.7 in SW 1.9 mph 3.7 mph 90% 0 in 0.00 W/m2 unknown
00:14 50 °F 46.4 °F 29.7 in SW 1.2 mph 3.1 mph 90% 0 in 0.00 W/m2 unknown
00:19 50 °F 46.4 °F 29.7 in WSW 1.9 mph 3.7 mph 90% 0 in 0.00 W/m2 unknown
00:24 50 °F 46.4 °F 29.7 in WSW 1.9 mph 3.7 mph 90% 0 in 0.00 W/m2 unknown
00:29 50 °F 46.4 °F 29.7 in WSW 1.2 mph 3.1 mph 90% 0 in 0.00 W/m2 unknown
00:34 50 °F 46.4 °F 29.7 in West 1.2 mph 2.5 mph 90% 0 in 0.00 W/m2 unknown
00:39 50 °F 46.4 °F 29.7 in WSW 1.2 mph 2.5 mph 90% 0 in 0.00 W/m2 unknown
00:44 48.2 °F 46.4 °F 29.7 in WSW 1.2 mph 2.5 mph 90% 0 in 0.00 W/m2 unknown
00:49 48.2 °F 46.4 °F 29.7 in WSW 1.2 mph 2.5 mph 90% 0 in 0.00 W/m2 unknown
00:54 48.2 °F 46.4 °F 29.7 in WSW 1.9 mph 3.7 mph 91% 0 in 0.00 W/m2 unknown
00:59 48.2 °F 46.4 °F 29.7 in WSW 1.9 mph 3.1 mph 91% 0 in 0.00 W/m2 unknown
01:04 48.2 °F 46.4 °F 29.7 in WSW 1.9 mph 3.1 mph 91% 0 in 0.00 W/m2 unknown
01:09 48.2 °F 46.4 °F 29.7 in SW 1.9 mph 3.7 mph 91% 0 in 0.00 W/m2 unknown
01:14 48.2 °F 46.4 °F 29.7 in SW 2.5 mph 3.7 mph 91% 0 in 0.00 W/m2 unknown
01:19 48.2 °F 46.4 °F 29.8 in SW 2.5 mph 3.7 mph 91% 0 in 0.00 W/m2 unknown
01:24 48.2 °F 46.4 °F 29.8 in SW 2.5 mph 3.7 mph 91% 0 in 0.00 W/m2 unknown
01:29 48.2 °F 46.4 °F 29.8 in SW 3.1 mph 3.7 mph 90% 0 in 0.00 W/m2 unknown
01:34 48.2 °F 46.4 °F 29.8 in SW 2.5 mph 3.7 mph 90% 0 in 0.00 W/m2 unknown
01:39 48.2 °F 46.4 °F 29.8 in WSW 2.5 mph 3.7 mph 90% 0 in 0.00 W/m2 unknown
01:44 48.2 °F 46.4 °F 29.8 in WSW 2.5 mph 3.7 mph 89% 0 in 0.00 W/m2 unknown
01:49 48.2 °F 44.6 °F 29.8 in WSW 3.7 mph 5 mph 89% 0 in 0.00 W/m2 unknown
01:54 48.2 °F 44.6 °F 29.8 in SW 5.6 mph 8.1 mph 89% 0 in 0.00 W/m2 unknown
01:59 48.2 °F 44.6 °F 29.8 in WSW 5.6 mph 8.1 mph 89% 0 in 0.00 W/m2 unknown
02:04 48.2 °F 44.6 °F 29.8 in WSW 5 mph 8.1 mph 89% 0 in 0.00 W/m2 unknown
02:09 48.2 °F 44.6 °F 29.8 in WSW 3.7 mph 6.2 mph 88% 0 in 0.00 W/m2 unknown
02:14 48.2 °F 44.6 °F 29.8 in WSW 5 mph 6.2 mph 89% 0 in 0.00 W/m2 unknown
02:19 48.2 °F 44.6 °F 29.8 in WSW 5 mph 6.2 mph 89% 0 in 0.00 W/m2 unknown
02:24 46.4 °F 44.6 °F 29.8 in WSW 4.3 mph 6.8 mph 89% 0 in 0.00 W/m2 unknown
02:29 46.4 °F 44.6 °F 29.8 in WSW 5 mph 6.8 mph 89% 0 in 0.00 W/m2 unknown
02:34 46.4 °F 44.6 °F 29.8 in WSW 4.3 mph 6.2 mph 89% 0 in 0.00 W/m2 unknown
02:39 46.4 °F 44.6 °F 29.8 in WSW 3.7 mph 6.2 mph 89% 0 in 0.00 W/m2 unknown
02:44 46.4 °F 44.6 °F 29.8 in WSW 3.7 mph 5 mph 89% 0 in 0.00 W/m2 unknown
02:49 46.4 °F 44.6 °F 29.8 in WSW 3.1 mph 5 mph 90% 0 in 0.00 W/m2 unknown
02:54 46.4 °F 44.6 °F 29.8 in WSW 3.1 mph 3.7 mph 90% 0 in 0.00 W/m2 unknown
02:59 46.4 °F 42.8 °F 29.7 in WSW 3.7 mph 3.7 mph 90% 0 in 0.00 W/m2 unknown
03:04 46.4 °F 42.8 °F 29.7 in WSW 3.7 mph 3.7 mph 90% 0 in 0.00 W/m2 unknown
03:09 46.4 °F 42.8 °F 29.8 in WSW 3.7 mph 5 mph 90% 0 in 0.00 W/m2 unknown
03:14 46.4 °F 42.8 °F 29.8 in WSW 4.3 mph 6.2 mph 90% 0 in 0.00 W/m2 unknown
03:19 46.4 °F 42.8 °F 29.8 in WSW 3.7 mph 5.6 mph 90% 0 in 0.00 W/m2 unknown
03:24 46.4 °F 42.8 °F 29.8 in SW 4.3 mph 6.2 mph 90% 0 in 0.00 W/m2 unknown
03:29 46.4 °F 44.6 °F 29.7 in SW 3.7 mph 6.2 mph 91% 0 in 0.00 W/m2 unknown
03:34 46.4 °F 44.6 °F 29.7 in WSW 3.7 mph 6.2 mph 91% 0 in 0.00 W/m2 unknown
03:39 46.4 °F 44.6 °F 29.7 in WSW 3.7 mph 5 mph 90% 0 in 0.00 W/m2 unknown
03:44 46.4 °F 44.6 °F 29.7 in WSW 3.7 mph 5 mph 90% 0 in 0.00 W/m2 unknown
03:49 46.4 °F 44.6 °F 29.7 in WSW 3.7 mph 5 mph 90% 0 in 0.00 W/m2 unknown
03:54 46.4 °F 42.8 °F 29.7 in WSW 3.1 mph 5 mph 90% 0 in 0.00 W/m2 unknown
03:59 46.4 °F 42.8 °F 29.7 in SW 3.1 mph 3.7 mph 91% 0 in 0.00 W/m2 unknown
04:04 46.4 °F 44.6 °F 29.7 in SW 3.7 mph 5 mph 91% 0 in 0.00 W/m2 unknown
04:09 46.4 °F 44.6 °F 29.7 in SW 3.1 mph 5 mph 91% 0 in 0.00 W/m2 unknown
04:14 46.4 °F 44.6 °F 29.7 in SW 3.1 mph 5 mph 90% 0 in 0.00 W/m2 unknown
04:19 46.4 °F 44.6 °F 29.7 in SW 2.5 mph 3.7 mph 90% 0 in 0.00 W/m2 unknown
04:24 46.4 °F 44.6 °F 29.7 in SW 2.5 mph 3.7 mph 90% 0 in 0.00 W/m2 unknown
04:29 46.4 °F 44.6 °F 29.7 in WSW 2.5 mph 3.7 mph 91% 0 in 0.00 W/m2 unknown
04:34 46.4 °F 44.6 °F 29.7 in WSW 2.5 mph 3.7 mph 91% 0 in 0.00 W/m2 unknown
04:39 46.4 °F 42.8 °F 29.7 in SW 3.1 mph 3.7 mph 90% 0 in 0.00 W/m2 unknown
04:44 46.4 °F 42.8 °F 29.7 in WSW 2.5 mph 3.7 mph 91% 0 in 0.00 W/m2 unknown
04:49 46.4 °F 42.8 °F 29.7 in SW 2.5 mph 3.7 mph 91% 0 in 0.00 W/m2 unknown
04:54 46.4 °F 42.8 °F 29.7 in SW 3.1 mph 3.7 mph 92% 0 in 0.00 W/m2 unknown
04:59 46.4 °F 42.8 °F 29.7 in SW 2.5 mph 3.7 mph 92% 0 in 0.00 W/m2 unknown
05:04 46.4 °F 42.8 °F 29.7 in SW 3.1 mph 3.7 mph 92% 0 in 0.00 W/m2 unknown
05:09 46.4 °F 42.8 °F 29.7 in SW 3.1 mph 3.7 mph 92% 0 in 0.00 W/m2 unknown
05:14 46.4 °F 42.8 °F 29.7 in WSW 3.1 mph 3.7 mph 91% 0 in 0.00 W/m2 unknown
05:19 46.4 °F 42.8 °F 29.7 in SW 3.7 mph 5 mph 91% 0 in 0.00 W/m2 unknown
05:24 46.4 °F 42.8 °F 29.7 in SW 4.3 mph 6.8 mph 92% 0 in 0.00 W/m2 unknown
05:29 46.4 °F 42.8 °F 29.7 in WSW 5 mph 6.8 mph 92% 0 in 0.00 W/m2 unknown
05:34 46.4 °F 42.8 °F 29.7 in WSW 4.3 mph 6.2 mph 92% 0 in 0.00 W/m2 unknown
05:39 46.4 °F 42.8 °F 29.7 in WSW 3.7 mph 6.2 mph 91% 0 in 0.00 W/m2 unknown
05:44 46.4 °F 42.8 °F 29.7 in WSW 4.3 mph 6.2 mph 92% 0 in 0.00 W/m2 unknown
05:49 46.4 °F 42.8 °F 29.7 in WSW 4.3 mph 6.2 mph 92% 0 in 0.00 W/m2 unknown
05:54 46.4 °F 42.8 °F 29.7 in West 3.7 mph 6.2 mph 91% 0 in 0.00 W/m2 unknown
05:59 46.4 °F 42.8 °F 29.7 in WSW 3.7 mph 6.2 mph 91% 0 in 0.00 W/m2 unknown
06:04 46.4 °F 42.8 °F 29.7 in WSW 3.7 mph 5 mph 91% 0 in 0.00 W/m2 unknown
06:09 46.4 °F 42.8 °F 29.7 in West 5 mph 6.2 mph 91% 0 in 0.00 W/m2 unknown
06:14 46.4 °F 44.6 °F 29.7 in West 5 mph 6.2 mph 91% 0 in 0.00 W/m2 unknown
06:19 46.4 °F 44.6 °F 29.7 in West 3.7 mph 6.2 mph 91% 0 in 0.00 W/m2 unknown
06:24 46.4 °F 44.6 °F 29.7 in West 4.3 mph 6.2 mph 91% 0 in 5.00 W/m2 unknown
06:29 48.2 °F 44.6 °F 29.8 in WNW 4.3 mph 6.2 mph 91% 0 in 7.00 W/m2 unknown
06:34 48.2 °F 44.6 °F 29.8 in WNW 4.3 mph 6.8 mph 90% 0 in 11.00 W/m2 unknown
06:39 48.2 °F 44.6 °F 29.8 in WNW 5 mph 6.8 mph 90% 0 in 12.00 W/m2 unknown
06:44 48.2 °F 44.6 °F 29.8 in NW 3.1 mph 6.2 mph 89% 0 in 14.00 W/m2 unknown
06:49 48.2 °F 44.6 °F 29.8 in NW 3.7 mph 5 mph 89% 0 in 18.00 W/m2 unknown
06:54 48.2 °F 44.6 °F 29.8 in NW 3.1 mph 5 mph 89% 0 in 21.00 W/m2 unknown
06:59 48.2 °F 44.6 °F 29.8 in WNW 2.5 mph 3.7 mph 89% 0 in 35.00 W/m2 unknown
07:04 48.2 °F 44.6 °F 29.8 in WNW 1.9 mph 3.7 mph 89% 0 in 44.00 W/m2 unknown
07:09 48.2 °F 44.6 °F 29.8 in West 1.9 mph 3.7 mph 89% 0 in 49.00 W/m2 unknown
07:14 48.2 °F 44.6 °F 29.8 in SW 1.9 mph 3.7 mph 89% 0 in 65.00 W/m2 unknown
07:19 48.2 °F 46.4 °F 29.8 in WSW 2.5 mph 3.7 mph 89% 0 in 77.00 W/m2 unknown
07:24 48.2 °F 46.4 °F 29.8 in West 2.5 mph 3.7 mph 92% 0 in 88.00 W/m2 unknown
07:29 50 °F 46.4 °F 29.8 in West 2.5 mph 3.7 mph 89% 0 in 105.00 W/m2 unknown
07:34 50 °F 46.4 °F 29.8 in West 3.1 mph 3.7 mph 89% 0 in 120.00 W/m2 unknown
07:39 50 °F 46.4 °F 29.8 in WNW 1.9 mph 3.7 mph 89% 0 in 135.00 W/m2 unknown
07:44 50 °F 48.2 °F 29.8 in WNW 3.7 mph 6.2 mph 89% 0 in 153.00 W/m2 unknown
07:49 51.8 °F 48.2 °F 29.8 in WNW 4.3 mph 6.2 mph 88% 0 in 174.00 W/m2 unknown
07:54 51.8 °F 48.2 °F 29.8 in WNW 5 mph 6.2 mph 86% 0 in 190.00 W/m2 unknown
07:59 51.8 °F 48.2 °F 29.8 in NW 3.7 mph 6.2 mph 86% 0 in 209.00 W/m2 unknown
08:04 51.8 °F 48.2 °F 29.8 in WNW 3.7 mph 6.2 mph 86% 0 in 223.00 W/m2 unknown
08:09 53.6 °F 48.2 °F 29.8 in WNW 3.1 mph 5 mph 86% 0 in 232.00 W/m2 unknown
08:14 53.6 °F 48.2 °F 29.8 in WNW 4.3 mph 6.8 mph 85% 0 in 246.00 W/m2 unknown
08:19 53.6 °F 50 °F 29.8 in NW 5.6 mph 6.8 mph 84% 0 in 255.00 W/m2 unknown
08:24 53.6 °F 50 °F 29.8 in WNW 5.6 mph 6.8 mph 83% 0 in 278.00 W/m2 unknown
08:29 55.4 °F 50 °F 29.8 in WNW 5 mph 6.8 mph 82% 0 in 297.00 W/m2 unknown
08:34 55.4 °F 50 °F 29.8 in NW 4.3 mph 5.6 mph 83% 0 in 308.00 W/m2 unknown
08:39 55.4 °F 50 °F 29.8 in NNW 5 mph 6.8 mph 83% 0 in 327.00 W/m2 unknown
08:44 55.4 °F 50 °F 29.8 in NW 5 mph 6.8 mph 81% 0 in 346.00 W/m2 unknown
08:49 55.4 °F 50 °F 29.8 in NW 5.6 mph 8.1 mph 81% 0 in 366.00 W/m2 unknown
08:54 57.2 °F 50 °F 29.8 in NW 5 mph 8.1 mph 80% 0 in 374.00 W/m2 unknown
08:59 57.2 °F 50 °F 29.8 in NW 5 mph 6.2 mph 80% 0 in 367.00 W/m2 unknown
09:04 57.2 °F 50 °F 29.8 in NW 5 mph 6.2 mph 79% 0 in 367.00 W/m2 unknown
09:09 57.2 °F 50 °F 29.8 in NW 5 mph 6.2 mph 79% 0 in 413.00 W/m2 unknown
09:14 57.2 °F 51.8 °F 29.8 in NW 5 mph 6.8 mph 79% 0 in 431.00 W/m2 unknown
09:19 59 °F 51.8 °F 29.8 in NW 5 mph 6.8 mph 79% 0 in 445.00 W/m2 unknown
09:24 59 °F 51.8 °F 29.8 in NW 4.3 mph 6.2 mph 79% 0 in 475.00 W/m2 unknown
09:29 59 °F 51.8 °F 29.8 in NNW 6.8 mph 10.6 mph 79% 0 in 475.00 W/m2 unknown
09:34 59 °F 51.8 °F 29.8 in NNW 6.8 mph 9.9 mph 79% 0 in 404.00 W/m2 unknown
09:39 59 °F 51.8 °F 29.8 in NW 5 mph 8.1 mph 79% 0 in 548.00 W/m2 unknown
09:44 60.8 °F 51.8 °F 29.8 in NW 3.7 mph 8.1 mph 76% 0 in 548.00 W/m2 unknown
09:49 60.8 °F 51.8 °F 29.8 in NNW 5.6 mph 6.8 mph 75% 0 in 540.00 W/m2 unknown
09:54 60.8 °F 51.8 °F 29.8 in NW 5.6 mph 8.1 mph 76% 0 in 548.00 W/m2 unknown
09:59 60.8 °F 51.8 °F 29.8 in NW 6.2 mph 8.1 mph 75% 0 in 512.00 W/m2 unknown
10:04 60.8 °F 51.8 °F 29.8 in NW 5.6 mph 8.1 mph 75% 0 in 573.00 W/m2 unknown
10:09 60.8 °F 51.8 °F 29.8 in NW 5.6 mph 8.1 mph 74% 0 in 578.00 W/m2 unknown
10:14 60.8 °F 51.8 °F 29.8 in NW 5 mph 8.1 mph 74% 0 in 587.00 W/m2 unknown
10:19 60.8 °F 53.6 °F 29.8 in NNW 4.3 mph 6.8 mph 75% 0 in 598.00 W/m2 unknown
10:24 62.6 °F 53.6 °F 29.8 in NW 5.6 mph 8.1 mph 73% 0 in 605.00 W/m2 unknown
10:29 62.6 °F 53.6 °F 29.8 in WNW 6.2 mph 9.3 mph 75% 0 in 619.00 W/m2 unknown
10:34 60.8 °F 53.6 °F 29.8 in NNW 3.7 mph 8.7 mph 75% 0 in 631.00 W/m2 unknown
10:39 62.6 °F 53.6 °F 29.8 in NW 5 mph 6.2 mph 74% 0 in 642.00 W/m2 unknown
10:44 62.6 °F 53.6 °F 29.8 in NNW 3.1 mph 4.3 mph 73% 0 in 666.00 W/m2 unknown
10:49 62.6 °F 53.6 °F 29.8 in NW 4.3 mph 6.8 mph 73% 0 in 705.00 W/m2 unknown
10:54 62.6 °F 53.6 °F 29.8 in NW 1.9 mph 3.7 mph 73% 0 in 719.00 W/m2 unknown
10:59 62.6 °F 53.6 °F 29.8 in WNW 3.1 mph 5 mph 72% 0 in 547.00 W/m2 unknown
11:04 62.6 °F 51.8 °F 29.8 in NW 5 mph 6.2 mph 70% 0 in 520.00 W/m2 unknown
11:09 62.6 °F 51.8 °F 29.8 in WNW 5 mph 6.2 mph 70% 0 in 803.00 W/m2 unknown
11:14 64.4 °F 53.6 °F 29.8 in NNW 4.3 mph 6.8 mph 73% 0 in 798.00 W/m2 unknown
11:19 64.4 °F 53.6 °F 29.8 in West 5 mph 6.8 mph 71% 0 in 821.00 W/m2 unknown
11:23 62.6 °F 53.6 °F 29.8 in West 5 mph 6.8 mph 71% 0 in 814.00 W/m2 unknown
11:29 62.6 °F 53.6 °F 29.8 in SW 3.1 mph 5 mph 72% 0 in 856.00 W/m2 unknown
11:34 64.4 °F 53.6 °F 29.8 in West 3.7 mph 5 mph 72% 0 in 911.00 W/m2 unknown
11:39 64.4 °F 53.6 °F 29.8 in WSW 3.1 mph 5 mph 69% 0 in 942.00 W/m2 unknown
11:44 64.4 °F 51.8 °F 29.8 in SSW 3.1 mph 3.7 mph 68% 0 in 318.00 W/m2 unknown
11:49 64.4 °F 53.6 °F 29.8 in WSW 5 mph 6.8 mph 69% 0 in 983.00 W/m2 unknown
11:54 64.4 °F 53.6 °F 29.8 in SW 5 mph 6.8 mph 69% 0 in 983.00 W/m2 unknown
11:59 64.4 °F 53.6 °F 29.8 in NE 3.7 mph 5 mph 69% 0 in 561.00 W/m2 unknown
12:04 64.4 °F 53.6 °F 29.8 in West 5 mph 6.8 mph 67% 0 in 573.00 W/m2 unknown
12:09 64.4 °F 53.6 °F 29.8 in WNW 5 mph 6.8 mph 68% 0 in 766.00 W/m2 unknown
12:14 66.2 °F 53.6 °F 29.8 in West 5 mph 6.8 mph 67% 0 in 925.00 W/m2 unknown
12:19 66.2 °F 53.6 °F 29.8 in WSW 5 mph 6.8 mph 66% 0 in 925.00 W/m2 unknown
12:24 64.4 °F 53.6 °F 29.8 in SW 3.7 mph 6.2 mph 67% 0 in 663.00 W/m2 unknown
12:29 64.4 °F 53.6 °F 29.8 in WSW 6.2 mph 6.8 mph 67% 0 in 459.00 W/m2 unknown
12:34 64.4 °F 53.6 °F 29.8 in WSW 6.2 mph 6.8 mph 67% 0 in 480.00 W/m2 unknown
12:39 64.4 °F 53.6 °F 29.8 in WSW 3.7 mph 6.8 mph 67% 0 in 445.00 W/m2 unknown
12:44 64.4 °F 53.6 °F 29.8 in WSW 3.1 mph 5 mph 66% 0 in 432.00 W/m2 unknown
12:49 64.4 °F 53.6 °F 29.8 in WSW 2.5 mph 3.7 mph 67% 0 in 380.00 W/m2 unknown
12:54 64.4 °F 53.6 °F 29.8 in WSW 2.5 mph 3.7 mph 67% 0 in 352.00 W/m2 unknown
12:59 64.4 °F 51.8 °F 29.8 in West 3.1 mph 3.7 mph 66% 0 in 359.00 W/m2 unknown
13:04 64.4 °F 53.6 °F 29.8 in WSW 3.7 mph 5 mph 67% 0 in 359.00 W/m2 unknown
13:09 64.4 °F 53.6 °F 29.8 in SW 3.1 mph 5 mph 67% 0 in 306.00 W/m2 unknown
13:14 64.4 °F 53.6 °F 29.8 in SSW 3.1 mph 5 mph 65% 0 in 278.00 W/m2 unknown
13:19 64.4 °F 51.8 °F 29.8 in ESE 3.1 mph 5 mph 66% 0 in 274.00 W/m2 unknown
13:24 64.4 °F 51.8 °F 29.8 in ESE 1.9 mph 5 mph 66% 0 in 267.00 W/m2 unknown
13:29 64.4 °F 53.6 °F 29.8 in ESE 2.5 mph 3.7 mph 68% 0 in 272.00 W/m2 unknown
13:33 64.4 °F 53.6 °F 29.8 in ESE 2.5 mph 5 mph 67% 0 in 267.00 W/m2 unknown
13:39 64.4 °F 53.6 °F 29.8 in ESE 5 mph 6.8 mph 67% 0 in 267.00 W/m2 unknown
13:44 64.4 °F 53.6 °F 29.8 in East 5 mph 6.8 mph 67% 0 in 267.00 W/m2 unknown
13:49 64.4 °F 53.6 °F 29.8 in East 5.6 mph 8.1 mph 69% 0 in 332.00 W/m2 unknown
13:54 64.4 °F 53.6 °F 29.8 in SE 5 mph 8.1 mph 69% 0 in 332.00 W/m2 unknown
13:59 64.4 °F 53.6 °F 29.8 in East 6.2 mph 8.1 mph 67% 0 in 323.00 W/m2 unknown
14:04 64.4 °F 53.6 °F 29.8 in ESE 5 mph 8.1 mph 67% 0 in 323.00 W/m2 unknown
14:09 64.4 °F 53.6 °F 29.8 in East 7.5 mph 9.3 mph 68% 0 in 295.00 W/m2 unknown
14:14 64.4 °F 53.6 °F 29.8 in East 6.2 mph 9.3 mph 68% 0 in 309.00 W/m2 unknown
14:19 64.4 °F 53.6 °F 29.8 in East 6.8 mph 9.3 mph 69% 0 in 332.00 W/m2 unknown
14:24 64.4 °F 53.6 °F 29.8 in East 7.5 mph 11.8 mph 69% 0 in 334.00 W/m2 unknown
14:29 64.4 °F 55.4 °F 29.8 in East 6.2 mph 11.8 mph 70% 0 in 348.00 W/m2 unknown
14:34 64.4 °F 55.4 °F 29.8 in East 6.8 mph 11.8 mph 70% 0 in 452.00 W/m2 unknown
14:39 66.2 °F 55.4 °F 29.8 in East 8.7 mph 11.8 mph 69% 0 in 452.00 W/m2 unknown
14:44 66.2 °F 55.4 °F 29.8 in East 8.7 mph 13 mph 69% 0 in 401.00 W/m2 unknown
14:49 66.2 °F 55.4 °F 29.8 in East 9.3 mph 13 mph 69% 0 in 390.00 W/m2 unknown
14:54 66.2 °F 55.4 °F 29.8 in East 8.7 mph 13 mph 68% 0 in 338.00 W/m2 unknown
14:59 66.2 °F 55.4 °F 29.8 in ESE 7.5 mph 11.8 mph 68% 0 in 482.00 W/m2 unknown
15:04 66.2 °F 55.4 °F 29.8 in East 7.5 mph 11.8 mph 68% 0 in 824.00 W/m2 unknown
15:09 68 °F 55.4 °F 29.8 in East 7.5 mph 11.2 mph 67% 0 in 580.00 W/m2 unknown
15:14 68 °F 55.4 °F 29.8 in ESE 7.5 mph 11.8 mph 66% 0 in 374.00 W/m2 unknown
15:19 66.2 °F 53.6 °F 29.8 in SE 5 mph 11.8 mph 66% 0 in 392.00 W/m2 unknown
15:24 66.2 °F 53.6 °F 29.8 in East 4.3 mph 8.1 mph 66% 0 in 373.00 W/m2 unknown
15:29 66.2 °F 53.6 °F 29.8 in East 5 mph 6.8 mph 66% 0 in 250.00 W/m2 unknown
15:34 66.2 °F 53.6 °F 29.8 in ESE 6.2 mph 10.6 mph 67% 0 in 246.00 W/m2 unknown
15:39 66.2 °F 55.4 °F 29.8 in ESE 5 mph 9.9 mph 69% 0 in 318.00 W/m2 unknown
15:44 66.2 °F 55.4 °F 29.8 in ESE 3.1 mph 5 mph 68% 0 in 410.00 W/m2 unknown
15:49 66.2 °F 53.6 °F 29.8 in SE 6.8 mph 9.3 mph 66% 0 in 383.00 W/m2 unknown
15:54 66.2 °F 55.4 °F 29.8 in ESE 7.5 mph 10.6 mph 67% 0 in 332.00 W/m2 unknown
15:59 66.2 °F 55.4 °F 29.8 in East 7.5 mph 11.2 mph 67% 0 in 373.00 W/m2 unknown
16:04 66.2 °F 55.4 °F 29.8 in ESE 6.8 mph 9.9 mph 67% 0 in 411.00 W/m2 unknown
16:09 66.2 °F 55.4 °F 29.8 in ESE 5 mph 8.7 mph 67% 0 in 548.00 W/m2 unknown
16:14 68 °F 55.4 °F 29.8 in East 6.2 mph 9.3 mph 67% 0 in 800.00 W/m2 unknown
16:19 68 °F 55.4 °F 29.8 in ESE 8.1 mph 10.6 mph 65% 0 in 833.00 W/m2 unknown
16:24 68 °F 55.4 °F 29.8 in ESE 8.7 mph 11.8 mph 65% 0 in 835.00 W/m2 unknown
16:29 68 °F 55.4 °F 29.8 in East 8.1 mph 11.8 mph 65% 0 in 788.00 W/m2 unknown
16:34 68 °F 55.4 °F 29.8 in East 8.1 mph 10.6 mph 64% 0 in 501.00 W/m2 unknown
16:39 68 °F 55.4 °F 29.8 in East 7.5 mph 9.9 mph 65% 0 in 241.00 W/m2 unknown
16:44 66.2 °F 55.4 °F 29.8 in East 8.1 mph 10.6 mph 66% 0 in 302.00 W/m2 unknown
16:49 66.2 °F 53.6 °F 29.8 in East 8.7 mph 10.6 mph 65% 0 in 645.00 W/m2 unknown
16:54 68 °F 55.4 °F 29.8 in ENE 6.8 mph 10.6 mph 66% 0 in 645.00 W/m2 unknown
16:59 68 °F 55.4 °F 29.8 in East 8.1 mph 11.8 mph 64% 0 in 631.00 W/m2 unknown
17:04 68 °F 55.4 °F 29.8 in East 8.7 mph 11.8 mph 64% 0 in 598.00 W/m2 unknown
17:09 68 °F 55.4 °F 29.8 in East 8.1 mph 11.8 mph 65% 0 in 338.00 W/m2 unknown
17:14 66.2 °F 55.4 °F 29.8 in ESE 6.8 mph 9.3 mph 66% 0 in 227.00 W/m2 unknown
17:19 66.2 °F 55.4 °F 29.8 in East 6.8 mph 10.6 mph 67% 0 in 497.00 W/m2 unknown
17:24 66.2 °F 55.4 °F 29.8 in ENE 8.1 mph 11.8 mph 66% 0 in 209.00 W/m2 unknown
17:29 66.2 °F 55.4 °F 29.8 in East 7.5 mph 11.8 mph 67% 0 in 399.00 W/m2 unknown
17:34 68 °F 55.4 °F 29.8 in East 8.1 mph 10.6 mph 66% 0 in 408.00 W/m2 unknown
17:39 68 °F 55.4 °F 29.8 in East 8.7 mph 10.6 mph 64% 0 in 357.00 W/m2 unknown
17:44 68 °F 53.6 °F 29.8 in East 6.8 mph 9.9 mph 64% 0 in 141.00 W/m2 unknown
17:49 66.2 °F 55.4 °F 29.8 in ENE 6.2 mph 8.7 mph 65% 0 in 134.00 W/m2 unknown
17:54 66.2 °F 53.6 °F 29.8 in ENE 7.5 mph 9.3 mph 64% 0 in 369.00 W/m2 unknown
17:59 68 °F 55.4 °F 29.8 in East 6.2 mph 9.3 mph 64% 0 in 376.00 W/m2 unknown
18:04 66.2 °F 53.6 °F 29.8 in ESE 8.7 mph 11.8 mph 64% 0 in 366.00 W/m2 unknown
18:09 66.2 °F 55.4 °F 29.8 in ESE 8.7 mph 11.8 mph 65% 0 in 336.00 W/m2 unknown
18:14 66.2 °F 55.4 °F 29.8 in ESE 8.7 mph 11.8 mph 65% 0 in 304.00 W/m2 unknown
18:19 66.2 °F 55.4 °F 29.8 in ESE 8.1 mph 10.6 mph 65% 0 in 281.00 W/m2 unknown
18:24 66.2 °F 53.6 °F 29.8 in ESE 6.8 mph 10.6 mph 65% 0 in 111.00 W/m2 unknown
18:29 66.2 °F 53.6 °F 29.8 in ESE 6.2 mph 9.9 mph 66% 0 in 60.00 W/m2 unknown
18:34 66.2 °F 53.6 °F 29.8 in SE 5 mph 6.8 mph 66% 0 in 51.00 W/m2 unknown
18:39 64.4 °F 53.6 °F 29.8 in ESE 4.3 mph 6.8 mph 66% 0 in 44.00 W/m2 unknown
18:44 64.4 °F 53.6 °F 29.8 in East 3.7 mph 5 mph 68% 0 in 44.00 W/m2 unknown
18:49 64.4 °F 53.6 °F 29.8 in ESE 3.1 mph 5 mph 69% 0 in 44.00 W/m2 unknown
18:54 64.4 °F 53.6 °F 29.8 in East 4.3 mph 8.1 mph 70% 0 in 44.00 W/m2 unknown
18:59 64.4 °F 53.6 °F 29.8 in ESE 3.7 mph 8.1 mph 70% 0 in 44.00 W/m2 unknown
19:04 64.4 °F 53.6 °F 29.8 in ESE 5 mph 6.2 mph 70% 0 in 42.00 W/m2 unknown
19:09 64.4 °F 53.6 °F 29.8 in East 5 mph 6.2 mph 71% 0 in 37.00 W/m2 unknown
19:14 64.4 °F 53.6 °F 29.8 in ENE 5 mph 8.1 mph 71% 0 in 33.00 W/m2 unknown
19:19 64.4 °F 53.6 °F 29.8 in ENE 5 mph 8.7 mph 72% 0 in 30.00 W/m2 unknown
19:24 62.6 °F 55.4 °F 29.8 in ENE 5.6 mph 9.3 mph 73% 0 in 28.00 W/m2 unknown
19:29 62.6 °F 53.6 °F 29.8 in East 5 mph 8.7 mph 73% 0 in 30.00 W/m2 unknown
19:34 62.6 °F 53.6 °F 29.8 in East 5 mph 8.1 mph 73% 0 in 30.00 W/m2 unknown
19:39 62.6 °F 53.6 °F 29.8 in East 5 mph 6.8 mph 74% 0 in 25.00 W/m2 unknown
19:44 62.6 °F 53.6 °F 29.8 in East 5 mph 6.8 mph 74% 0 in 19.00 W/m2 unknown
19:49 62.6 °F 53.6 °F 29.8 in East 3.1 mph 6.2 mph 75% 0 in 16.00 W/m2 unknown
19:54 62.6 °F 53.6 °F 29.8 in East 5 mph 6.8 mph 75% 0 in 12.00 W/m2 unknown
19:59 62.6 °F 53.6 °F 29.8 in East 5 mph 6.8 mph 75% 0 in 9.00 W/m2 unknown
20:04 62.6 °F 53.6 °F 29.8 in East 3.7 mph 6.8 mph 76% 0 in 7.00 W/m2 unknown
20:09 60.8 °F 53.6 °F 29.8 in East 6.2 mph 9.3 mph 76% 0 in 5.00 W/m2 unknown
20:14 60.8 °F 53.6 °F 29.8 in East 6.2 mph 9.3 mph 76% 0 in 0.00 W/m2 unknown
20:19 60.8 °F 53.6 °F 29.8 in East 5.6 mph 6.8 mph 76% 0 in 0.00 W/m2 unknown
20:24 60.8 °F 53.6 °F 29.8 in ESE 3.1 mph 6.8 mph 77% 0 in 0.00 W/m2 unknown
20:29 60.8 °F 53.6 °F 29.8 in East 4.3 mph 5 mph 78% 0 in 0.00 W/m2 unknown
20:34 60.8 °F 53.6 °F 29.8 in East 3.1 mph 5 mph 79% 0 in 0.00 W/m2 unknown
20:39 60.8 °F 53.6 °F 29.8 in East 3.7 mph 5 mph 79% 0 in 0.00 W/m2 unknown
20:44 60.8 °F 53.6 °F 29.8 in East 3.7 mph 6.8 mph 80% 0 in 0.00 W/m2 unknown
20:49 60.8 °F 53.6 °F 29.8 in ENE 3.1 mph 6.8 mph 80% 0 in 0.00 W/m2 unknown
20:54 60.8 °F 55.4 °F 29.8 in East 3.1 mph 5 mph 80% 0 in 0.00 W/m2 unknown
20:59 60.8 °F 55.4 °F 29.8 in East 3.1 mph 5 mph 80% 0 in 0.00 W/m2 unknown
21:04 60.8 °F 55.4 °F 29.9 in East 1.9 mph 5 mph 81% 0 in 0.00 W/m2 unknown
21:09 60.8 °F 55.4 °F 29.9 in ESE 1.9 mph 3.7 mph 81% 0 in 0.00 W/m2 unknown
21:14 60.8 °F 55.4 °F 29.9 in ESE 1.2 mph 3.1 mph 81% 0 in 0.00 W/m2 unknown
21:19 60.8 °F 55.4 °F 29.9 in SE 1.9 mph 3.7 mph 81% 0 in 0.00 W/m2 unknown
21:24 60.8 °F 55.4 °F 29.9 in SE 3.7 mph 5 mph 81% 0 in 0.00 W/m2 unknown
21:29 60.8 °F 53.6 °F 29.9 in ESE 4.3 mph 5 mph 80% 0 in 0.00 W/m2 unknown
21:34 60.8 °F 53.6 °F 29.9 in ESE 3.7 mph 6.2 mph 80% 0 in 0.00 W/m2 unknown
21:39 60.8 °F 53.6 °F 29.9 in ESE 3.1 mph 6.2 mph 80% 0 in 0.00 W/m2 unknown
21:44 60.8 °F 53.6 °F 29.9 in SSE 2.5 mph 3.7 mph 80% 0 in 0.00 W/m2 unknown
21:49 60.8 °F 53.6 °F 29.9 in ESE 2.5 mph 3.7 mph 80% 0 in 0.00 W/m2 unknown
21:54 60.8 °F 53.6 °F 29.9 in East 5 mph 6.2 mph 81% 0 in 0.00 W/m2 unknown
21:59 60.8 °F 53.6 °F 29.9 in ENE 5 mph 6.8 mph 81% 0 in 0.00 W/m2 unknown
22:04 60.8 °F 55.4 °F 29.9 in ENE 4.3 mph 6.8 mph 82% 0 in 0.00 W/m2 unknown
22:09 60.8 °F 53.6 °F 29.9 in ENE 5.6 mph 6.8 mph 82% 0 in 0.00 W/m2 unknown
22:14 59 °F 53.6 °F 29.9 in NE 6.2 mph 8.1 mph 82% 0 in 0.00 W/m2 unknown
22:19 59 °F 53.6 °F 29.9 in ENE 5 mph 8.1 mph 82% 0 in 0.00 W/m2 unknown
22:24 59 °F 53.6 °F 29.9 in ENE 5 mph 8.1 mph 82% 0 in 0.00 W/m2 unknown
22:29 59 °F 53.6 °F 29.9 in ENE 5 mph 8.1 mph 82% 0 in 0.00 W/m2 unknown
22:34 59 °F 53.6 °F 29.9 in ENE 3.7 mph 6.2 mph 83% 0 in 0.00 W/m2 unknown
22:39 59 °F 53.6 °F 29.9 in East 1.9 mph 6.2 mph 83% 0 in 0.00 W/m2 unknown
22:44 59 °F 53.6 °F 29.9 in SE 2.5 mph 3.7 mph 84% 0 in 0.00 W/m2 unknown
22:49 59 °F 53.6 °F 29.9 in SE 1.2 mph 2.5 mph 84% 0 in 0.00 W/m2 unknown
22:54 59 °F 53.6 °F 29.9 in SE 0.6 mph 1.9 mph 84% 0 in 0.00 W/m2 unknown
22:59 59 °F 53.6 °F 29.9 in ESE 1.2 mph 1.9 mph 84% 0 in 0.00 W/m2 unknown
23:04 59 °F 53.6 °F 29.9 in East 1.2 mph 3.1 mph 85% 0 in 0.00 W/m2 unknown
23:09 59 °F 53.6 °F 29.9 in East 1.9 mph 3.7 mph 85% 0 in 0.00 W/m2 unknown
23:14 59 °F 53.6 °F 29.9 in East 2.5 mph 3.7 mph 85% 0 in 0.00 W/m2 unknown
23:19 57.2 °F 53.6 °F 29.9 in East 3.1 mph 5 mph 86% 0 in 0.00 W/m2 unknown
23:24 57.2 °F 53.6 °F 29.9 in East 4.3 mph 6.8 mph 85% 0 in 0.00 W/m2 unknown
23:29 57.2 °F 53.6 °F 29.9 in East 5 mph 6.2 mph 85% 0 in 0.00 W/m2 unknown
23:34 57.2 °F 53.6 °F 29.9 in East 3.1 mph 6.2 mph 85% 0 in 0.00 W/m2 unknown
23:39 57.2 °F 53.6 °F 29.9 in East 3.1 mph 5 mph 85% 0 in 0.00 W/m2 unknown
23:44 57.2 °F 53.6 °F 29.9 in East 3.1 mph 5 mph 85% 0 in 0.00 W/m2 unknown
23:49 57.2 °F 53.6 °F 29.9 in ESE 1.9 mph 5 mph 85% 0 in 0.00 W/m2 unknown
23:54 57.2 °F 53.6 °F 29.9 in East 2.5 mph 3.7 mph 85% 0 in 0.00 W/m2 unknown
23:59 57.2 °F 53.6 °F 29.9 in East 1.9 mph 3.7 mph 85% 0 in 0.00 W/m2 unknown
Stazione Meteorologica MeteoMincio Rivalta s/M (MN)
Con i complimenti di Weather Underground - 4 mb



METEO PILLOLE
Il più grande ciclone tropicale
Pacifico occidentale
Al culmine della sua potenza, il 12 ottobre 1979, il tifone Tip imperversa su un raggio di circa 1100 km. La pressione di 870 mb registrata nell'occhio di questo ciclone è la più bassa mai rilevata sulla Terra al livello del mare.
Share

Non seguire questo link o sarai bannato dal sito!